sensor_id;sensor_type;location;lat;lon;timestamp;pressure;altitude;pressure_sealevel;temperature;humidity
6094;BME280;19964;42.060;24.700;2023-04-25T00:00:55;96769.00;;;12.74;100.00
6094;BME280;19964;42.060;24.700;2023-04-25T00:03:22;96770.28;;;12.66;100.00
6094;BME280;19964;42.060;24.700;2023-04-25T00:05:50;96764.81;;;12.58;100.00
6094;BME280;19964;42.060;24.700;2023-04-25T00:08:17;96760.16;;;12.65;100.00
6094;BME280;19964;42.060;24.700;2023-04-25T00:10:44;96760.97;;;12.80;100.00
6094;BME280;19964;42.060;24.700;2023-04-25T00:13:12;96756.06;;;12.94;100.00
6094;BME280;19964;42.060;24.700;2023-04-25T00:15:40;96669.94;;;12.45;100.00
6094;BME280;19964;42.060;24.700;2023-04-25T00:18:07;96745.97;;;13.02;100.00
6094;BME280;19964;42.060;24.700;2023-04-25T00:20:35;96759.97;;;12.91;100.00
6094;BME280;19964;42.060;24.700;2023-04-25T00:23:02;96765.16;;;12.91;100.00
6094;BME280;19964;42.060;24.700;2023-04-25T00:25:28;96754.00;;;12.96;100.00
6094;BME280;19964;42.060;24.700;2023-04-25T00:27:55;96739.13;;;12.76;100.00
6094;BME280;19964;42.060;24.700;2023-04-25T00:30:23;96752.69;;;12.83;100.00
6094;BME280;19964;42.060;24.700;2023-04-25T00:32:50;96753.72;;;12.77;100.00
6094;BME280;19964;42.060;24.700;2023-04-25T00:35:17;96761.81;;;12.91;100.00
6094;BME280;19964;42.060;24.700;2023-04-25T00:37:44;96759.47;;;12.99;100.00
6094;BME280;19964;42.060;24.700;2023-04-25T00:40:11;96742.84;;;13.05;100.00
6094;BME280;19964;42.060;24.700;2023-04-25T00:42:38;96739.16;;;12.81;100.00
6094;BME280;19964;42.060;24.700;2023-04-25T00:45:06;96732.09;;;12.62;100.00
6094;BME280;19964;42.060;24.700;2023-04-25T00:47:35;96731.09;;;12.68;100.00
6094;BME280;19964;42.060;24.700;2023-04-25T00:50:02;96726.78;;;12.26;100.00
6094;BME280;19964;42.060;24.700;2023-04-25T00:52:29;96733.88;;;12.51;100.00
6094;BME280;19964;42.060;24.700;2023-04-25T00:54:56;96745.09;;;12.62;100.00
6094;BME280;19964;42.060;24.700;2023-04-25T00:57:23;96746.88;;;12.56;100.00
6094;BME280;19964;42.060;24.700;2023-04-25T00:59:51;96725.25;;;12.35;100.00
6094;BME280;19964;42.060;24.700;2023-04-25T01:02:19;96655.53;;;12.02;100.00
6094;BME280;19964;42.060;24.700;2023-04-25T01:04:48;96687.56;;;12.23;100.00
6094;BME280;19964;42.060;24.700;2023-04-25T01:07:15;96756.81;;;12.69;100.00
6094;BME280;19964;42.060;24.700;2023-04-25T01:09:42;96757.25;;;12.51;100.00
6094;BME280;19964;42.060;24.700;2023-04-25T01:12:09;96654.75;;;11.55;100.00
6094;BME280;19964;42.060;24.700;2023-04-25T01:14:35;96759.75;;;12.21;100.00
6094;BME280;19964;42.060;24.700;2023-04-25T01:17:02;96757.16;;;12.26;100.00
6094;BME280;19964;42.060;24.700;2023-04-25T01:19:29;96752.66;;;12.11;100.00
6094;BME280;19964;42.060;24.700;2023-04-25T01:21:58;96750.75;;;11.92;100.00
6094;BME280;19964;42.060;24.700;2023-04-25T01:24:25;96742.13;;;11.81;100.00
6094;BME280;19964;42.060;24.700;2023-04-25T01:26:53;96739.31;;;11.88;100.00
6094;BME280;19964;42.060;24.700;2023-04-25T01:29:22;96751.91;;;12.11;100.00
6094;BME280;19964;42.060;24.700;2023-04-25T01:31:51;96749.47;;;11.94;100.00
6094;BME280;19964;42.060;24.700;2023-04-25T01:34:18;96745.34;;;11.98;100.00
6094;BME280;19964;42.060;24.700;2023-04-25T01:36:46;96744.59;;;12.08;100.00
6094;BME280;19964;42.060;24.700;2023-04-25T01:39:15;96753.56;;;11.85;100.00
6094;BME280;19964;42.060;24.700;2023-04-25T01:41:42;96744.22;;;11.84;100.00
6094;BME280;19964;42.060;24.700;2023-04-25T01:44:09;96741.81;;;11.73;100.00
6094;BME280;19964;42.060;24.700;2023-04-25T01:46:35;96740.88;;;11.52;100.00
6094;BME280;19964;42.060;24.700;2023-04-25T01:49:02;96738.47;;;11.45;100.00
6094;BME280;19964;42.060;24.700;2023-04-25T01:51:29;96713.31;;;11.41;100.00
6094;BME280;19964;42.060;24.700;2023-04-25T01:53:57;96738.69;;;11.71;100.00
6094;BME280;19964;42.060;24.700;2023-04-25T01:56:25;96728.31;;;11.71;100.00
6094;BME280;19964;42.060;24.700;2023-04-25T01:58:56;96740.53;;;11.75;100.00
6094;BME280;19964;42.060;24.700;2023-04-25T02:01:23;96728.59;;;11.74;100.00
6094;BME280;19964;42.060;24.700;2023-04-25T02:03:49;96732.03;;;11.53;100.00
6094;BME280;19964;42.060;24.700;2023-04-25T02:06:16;96706.97;;;11.27;100.00
6094;BME280;19964;42.060;24.700;2023-04-25T02:08:43;96709.75;;;11.52;100.00
6094;BME280;19964;42.060;24.700;2023-04-25T02:11:09;96730.41;;;11.74;100.00
6094;BME280;19964;42.060;24.700;2023-04-25T02:13:37;96734.38;;;11.86;100.00
6094;BME280;19964;42.060;24.700;2023-04-25T02:16:05;96733.38;;;11.60;100.00
6094;BME280;19964;42.060;24.700;2023-04-25T02:18:32;96731.44;;;11.73;100.00
6094;BME280;19964;42.060;24.700;2023-04-25T02:20:59;96723.66;;;11.73;100.00
6094;BME280;19964;42.060;24.700;2023-04-25T02:23:26;96728.41;;;11.86;100.00
6094;BME280;19964;42.060;24.700;2023-04-25T02:25:53;96729.50;;;11.95;100.00
6094;BME280;19964;42.060;24.700;2023-04-25T02:28:20;96668.09;;;11.32;100.00
6094;BME280;19964;42.060;24.700;2023-04-25T02:30:48;96705.63;;;11.61;100.00
6094;BME280;19964;42.060;24.700;2023-04-25T02:33:15;96706.81;;;11.75;100.00
6094;BME280;19964;42.060;24.700;2023-04-25T02:35:42;96724.84;;;11.60;100.00
6094;BME280;19964;42.060;24.700;2023-04-25T02:38:09;96714.41;;;11.55;100.00
6094;BME280;19964;42.060;24.700;2023-04-25T02:40:36;96720.69;;;11.59;100.00
6094;BME280;19964;42.060;24.700;2023-04-25T02:43:02;96714.88;;;11.47;100.00
6094;BME280;19964;42.060;24.700;2023-04-25T02:45:29;96723.44;;;11.42;100.00
6094;BME280;19964;42.060;24.700;2023-04-25T02:47:57;96716.63;;;11.36;100.00
6094;BME280;19964;42.060;24.700;2023-04-25T02:50:24;96715.66;;;11.42;100.00
6094;BME280;19964;42.060;24.700;2023-04-25T02:52:51;96721.38;;;11.44;100.00
6094;BME280;19964;42.060;24.700;2023-04-25T02:55:18;96715.75;;;11.21;100.00
6094;BME280;19964;42.060;24.700;2023-04-25T02:57:45;96733.75;;;11.37;100.00
6094;BME280;19964;42.060;24.700;2023-04-25T03:00:12;96735.28;;;11.33;100.00
6094;BME280;19964;42.060;24.700;2023-04-25T03:02:40;96730.34;;;11.32;100.00
6094;BME280;19964;42.060;24.700;2023-04-25T03:05:08;96728.06;;;11.04;100.00
6094;BME280;19964;42.060;24.700;2023-04-25T03:07:35;96724.16;;;11.06;100.00
6094;BME280;19964;42.060;24.700;2023-04-25T03:10:05;96725.63;;;10.92;100.00
6094;BME280;19964;42.060;24.700;2023-04-25T03:12:32;96733.69;;;10.96;100.00
6094;BME280;19964;42.060;24.700;2023-04-25T03:14:59;96728.09;;;11.09;100.00
6094;BME280;19964;42.060;24.700;2023-04-25T03:17:26;96733.59;;;10.91;100.00
6094;BME280;19964;42.060;24.700;2023-04-25T03:19:52;96715.06;;;10.72;100.00
6094;BME280;19964;42.060;24.700;2023-04-25T03:22:21;96727.69;;;10.95;100.00
6094;BME280;19964;42.060;24.700;2023-04-25T03:24:48;96716.59;;;11.00;100.00
6094;BME280;19964;42.060;24.700;2023-04-25T03:27:15;96726.91;;;11.21;100.00
6094;BME280;19964;42.060;24.700;2023-04-25T03:29:42;96716.97;;;11.13;100.00
6094;BME280;19964;42.060;24.700;2023-04-25T03:32:08;96709.81;;;10.94;100.00
6094;BME280;19964;42.060;24.700;2023-04-25T03:34:35;96710.59;;;10.94;100.00
6094;BME280;19964;42.060;24.700;2023-04-25T03:37:02;96700.16;;;10.84;100.00
6094;BME280;19964;42.060;24.700;2023-04-25T03:39:30;96709.59;;;11.00;100.00
6094;BME280;19964;42.060;24.700;2023-04-25T03:41:57;96708.16;;;11.14;100.00
6094;BME280;19964;42.060;24.700;2023-04-25T03:44:23;96691.16;;;10.97;100.00
6094;BME280;19964;42.060;24.700;2023-04-25T03:46:50;96693.09;;;10.80;100.00
6094;BME280;19964;42.060;24.700;2023-04-25T03:49:17;96697.00;;;10.82;100.00
6094;BME280;19964;42.060;24.700;2023-04-25T03:51:44;96687.13;;;10.79;100.00
6094;BME280;19964;42.060;24.700;2023-04-25T03:54:10;96683.09;;;10.88;100.00
6094;BME280;19964;42.060;24.700;2023-04-25T03:56:38;96675.91;;;11.00;100.00
6094;BME280;19964;42.060;24.700;2023-04-25T03:59:05;96677.41;;;10.91;100.00
6094;BME280;19964;42.060;24.700;2023-04-25T04:01:33;96676.25;;;11.09;100.00
6094;BME280;19964;42.060;24.700;2023-04-25T04:04:00;96645.50;;;10.91;100.00
6094;BME280;19964;42.060;24.700;2023-04-25T04:06:27;96678.47;;;10.95;100.00
6094;BME280;19964;42.060;24.700;2023-04-25T04:08:54;96682.59;;;10.96;100.00
6094;BME280;19964;42.060;24.700;2023-04-25T04:11:20;96682.41;;;11.03;100.00
6094;BME280;19964;42.060;24.700;2023-04-25T04:13:49;96682.78;;;11.16;100.00
6094;BME280;19964;42.060;24.700;2023-04-25T04:16:15;96682.59;;;11.28;100.00
6094;BME280;19964;42.060;24.700;2023-04-25T04:18:42;96697.06;;;11.19;100.00
6094;BME280;19964;42.060;24.700;2023-04-25T04:21:09;96703.75;;;11.10;100.00
6094;BME280;19964;42.060;24.700;2023-04-25T04:23:36;96678.97;;;10.92;100.00
6094;BME280;19964;42.060;24.700;2023-04-25T04:26:03;96705.81;;;11.13;100.00
6094;BME280;19964;42.060;24.700;2023-04-25T04:28:30;96714.84;;;11.42;100.00
6094;BME280;19964;42.060;24.700;2023-04-25T04:30:58;96722.19;;;11.50;100.00
6094;BME280;19964;42.060;24.700;2023-04-25T04:33:26;96720.66;;;11.54;100.00
6094;BME280;19964;42.060;24.700;2023-04-25T04:35:53;96715.31;;;11.66;100.00
6094;BME280;19964;42.060;24.700;2023-04-25T04:38:21;96711.06;;;11.54;100.00
6094;BME280;19964;42.060;24.700;2023-04-25T04:40:47;96718.25;;;11.42;100.00
6094;BME280;19964;42.060;24.700;2023-04-25T04:43:15;96714.06;;;11.41;100.00
6094;BME280;19964;42.060;24.700;2023-04-25T04:45:44;96716.09;;;12.13;100.00
6094;BME280;19964;42.060;24.700;2023-04-25T04:48:12;96719.34;;;12.60;100.00
6094;BME280;19964;42.060;24.700;2023-04-25T04:50:39;96732.56;;;12.43;100.00
6094;BME280;19964;42.060;24.700;2023-04-25T04:53:07;96556.03;;;11.15;100.00
6094;BME280;19964;42.060;24.700;2023-04-25T04:55:33;96708.34;;;12.23;100.00
6094;BME280;19964;42.060;24.700;2023-04-25T04:58:00;96728.47;;;12.73;100.00
6094;BME280;19964;42.060;24.700;2023-04-25T05:00:27;96713.88;;;12.51;100.00
6094;BME280;19964;42.060;24.700;2023-04-25T05:02:54;96731.38;;;12.81;100.00
6094;BME280;19964;42.060;24.700;2023-04-25T05:05:22;96736.59;;;13.01;100.00
6094;BME280;19964;42.060;24.700;2023-04-25T05:07:49;96739.50;;;13.30;100.00
6094;BME280;19964;42.060;24.700;2023-04-25T05:10:16;96744.19;;;13.18;100.00
6094;BME280;19964;42.060;24.700;2023-04-25T05:12:43;96739.22;;;13.11;100.00
6094;BME280;19964;42.060;24.700;2023-04-25T05:15:10;96733.28;;;13.26;100.00
6094;BME280;19964;42.060;24.700;2023-04-25T05:17:37;96730.41;;;13.27;100.00
6094;BME280;19964;42.060;24.700;2023-04-25T05:20:06;96735.84;;;13.11;100.00
6094;BME280;19964;42.060;24.700;2023-04-25T05:22:35;96741.84;;;13.36;100.00
6094;BME280;19964;42.060;24.700;2023-04-25T05:25:02;96733.25;;;13.56;100.00
6094;BME280;19964;42.060;24.700;2023-04-25T05:27:30;96727.50;;;13.69;100.00
6094;BME280;19964;42.060;24.700;2023-04-25T05:29:56;96735.50;;;13.93;100.00
6094;BME280;19964;42.060;24.700;2023-04-25T05:32:23;96732.63;;;14.04;100.00
6094;BME280;19964;42.060;24.700;2023-04-25T05:34:50;96742.81;;;13.96;100.00
6094;BME280;19964;42.060;24.700;2023-04-25T05:37:17;96734.25;;;13.85;100.00
6094;BME280;19964;42.060;24.700;2023-04-25T05:39:45;96737.06;;;13.99;100.00
6094;BME280;19964;42.060;24.700;2023-04-25T05:42:11;96731.31;;;14.12;100.00
6094;BME280;19964;42.060;24.700;2023-04-25T05:44:38;96731.56;;;14.15;100.00
6094;BME280;19964;42.060;24.700;2023-04-25T05:47:05;96729.75;;;14.16;100.00
6094;BME280;19964;42.060;24.700;2023-04-25T05:49:32;96736.28;;;14.03;100.00
6094;BME280;19964;42.060;24.700;2023-04-25T05:51:59;96738.81;;;14.34;100.00
6094;BME280;19964;42.060;24.700;2023-04-25T05:54:25;96746.41;;;14.84;100.00
6094;BME280;19964;42.060;24.700;2023-04-25T05:56:53;96743.56;;;15.19;98.04
6094;BME280;19964;42.060;24.700;2023-04-25T05:59:20;96745.63;;;15.22;97.52
6094;BME280;19964;42.060;24.700;2023-04-25T06:01:47;96737.47;;;15.62;95.36
6094;BME280;19964;42.060;24.700;2023-04-25T06:04:13;96747.28;;;16.28;91.75
6094;BME280;19964;42.060;24.700;2023-04-25T06:06:40;96728.84;;;16.80;89.72
6094;BME280;19964;42.060;24.700;2023-04-25T06:09:07;96747.06;;;17.73;86.53
6094;BME280;19964;42.060;24.700;2023-04-25T06:11:33;96665.75;;;17.64;79.35
6094;BME280;19964;42.060;24.700;2023-04-25T06:14:02;96725.38;;;17.86;82.62
6094;BME280;19964;42.060;24.700;2023-04-25T06:16:28;96723.72;;;17.90;80.56
6094;BME280;19964;42.060;24.700;2023-04-25T06:18:55;96722.16;;;18.03;80.34
6094;BME280;19964;42.060;24.700;2023-04-25T06:21:22;96721.34;;;17.61;81.52
6094;BME280;19964;42.060;24.700;2023-04-25T06:23:48;96708.56;;;17.41;81.26
6094;BME280;19964;42.060;24.700;2023-04-25T06:26:15;96710.59;;;17.12;79.66
6094;BME280;19964;42.060;24.700;2023-04-25T06:28:42;96713.72;;;16.96;84.30
6094;BME280;19964;42.060;24.700;2023-04-25T06:31:10;96701.47;;;17.60;83.87
6094;BME280;19964;42.060;24.700;2023-04-25T06:33:37;96716.38;;;17.60;81.53
6094;BME280;19964;42.060;24.700;2023-04-25T06:36:04;96712.94;;;17.78;81.93
6094;BME280;19964;42.060;24.700;2023-04-25T06:38:30;96708.75;;;18.04;80.06
6094;BME280;19964;42.060;24.700;2023-04-25T06:40:57;96712.84;;;17.97;80.29
6094;BME280;19964;42.060;24.700;2023-04-25T06:43:24;96705.84;;;17.46;81.17
6094;BME280;19964;42.060;24.700;2023-04-25T06:45:51;96712.97;;;17.27;79.92
6094;BME280;19964;42.060;24.700;2023-04-25T06:48:19;96712.16;;;17.45;81.94
6094;BME280;19964;42.060;24.700;2023-04-25T06:50:45;96700.63;;;18.06;81.50
6094;BME280;19964;42.060;24.700;2023-04-25T06:53:12;96711.59;;;17.81;79.25
6094;BME280;19964;42.060;24.700;2023-04-25T06:55:39;96695.19;;;17.43;80.29
6094;BME280;19964;42.060;24.700;2023-04-25T06:58:06;96699.31;;;17.62;78.63
6094;BME280;19964;42.060;24.700;2023-04-25T07:00:33;96710.50;;;18.63;78.08
6094;BME280;19964;42.060;24.700;2023-04-25T07:03:00;96710.75;;;19.11;75.25
6094;BME280;19964;42.060;24.700;2023-04-25T07:05:28;96696.81;;;18.52;76.47
6094;BME280;19964;42.060;24.700;2023-04-25T07:07:55;96687.69;;;19.30;74.24
6094;BME280;19964;42.060;24.700;2023-04-25T07:10:22;96708.38;;;19.45;73.03
6094;BME280;19964;42.060;24.700;2023-04-25T07:12:48;96713.06;;;18.54;76.15
6094;BME280;19964;42.060;24.700;2023-04-25T07:15:15;96719.25;;;17.91;75.50
6094;BME280;19964;42.060;24.700;2023-04-25T07:17:42;96720.19;;;17.35;78.75
6094;BME280;19964;42.060;24.700;2023-04-25T07:20:09;96695.94;;;17.11;78.47
6094;BME280;19964;42.060;24.700;2023-04-25T07:22:37;96708.34;;;17.56;78.26
6094;BME280;19964;42.060;24.700;2023-04-25T07:25:05;96716.63;;;16.94;79.26
6094;BME280;19964;42.060;24.700;2023-04-25T07:27:32;96705.06;;;17.46;81.65
6094;BME280;19964;42.060;24.700;2023-04-25T07:29:59;96705.06;;;18.95;76.16
6094;BME280;19964;42.060;24.700;2023-04-25T07:32:26;96704.47;;;19.65;72.45
6094;BME280;19964;42.060;24.700;2023-04-25T07:34:52;96702.38;;;18.87;72.83
6094;BME280;19964;42.060;24.700;2023-04-25T07:37:19;96701.50;;;18.15;76.80
6094;BME280;19964;42.060;24.700;2023-04-25T07:39:47;96706.63;;;17.79;79.32
6094;BME280;19964;42.060;24.700;2023-04-25T07:42:14;96704.78;;;18.34;74.30
6094;BME280;19964;42.060;24.700;2023-04-25T07:44:41;96696.81;;;18.39;74.92
6094;BME280;19964;42.060;24.700;2023-04-25T07:47:08;96696.47;;;19.25;71.57
6094;BME280;19964;42.060;24.700;2023-04-25T07:49:36;96698.06;;;19.79;70.92
6094;BME280;19964;42.060;24.700;2023-04-25T07:52:04;96715.31;;;20.02;67.87
6094;BME280;19964;42.060;24.700;2023-04-25T07:54:31;96678.72;;;19.75;69.62
6094;BME280;19964;42.060;24.700;2023-04-25T07:56:59;96703.84;;;20.46;66.19
6094;BME280;19964;42.060;24.700;2023-04-25T07:59:26;96652.72;;;20.21;65.73
6094;BME280;19964;42.060;24.700;2023-04-25T08:01:53;96697.22;;;20.09;65.17
6094;BME280;19964;42.060;24.700;2023-04-25T08:04:19;96696.13;;;20.58;65.67
6094;BME280;19964;42.060;24.700;2023-04-25T08:06:46;96696.78;;;20.81;63.98
6094;BME280;19964;42.060;24.700;2023-04-25T08:09:13;96702.31;;;20.45;64.67
6094;BME280;19964;42.060;24.700;2023-04-25T08:11:41;96695.84;;;19.42;67.86
6094;BME280;19964;42.060;24.700;2023-04-25T08:14:09;96702.88;;;19.55;68.66
6094;BME280;19964;42.060;24.700;2023-04-25T08:16:36;96704.28;;;18.95;68.83
6094;BME280;19964;42.060;24.700;2023-04-25T08:19:03;96678.03;;;19.39;70.24
6094;BME280;19964;42.060;24.700;2023-04-25T08:21:30;96695.03;;;20.42;68.93
6094;BME280;19964;42.060;24.700;2023-04-25T08:23:58;96686.13;;;19.82;69.00
6094;BME280;19964;42.060;24.700;2023-04-25T08:26:25;96698.13;;;20.35;66.25
6094;BME280;19964;42.060;24.700;2023-04-25T08:28:52;96700.88;;;19.61;69.56
6094;BME280;19964;42.060;24.700;2023-04-25T08:31:20;96702.56;;;19.87;68.86
6094;BME280;19964;42.060;24.700;2023-04-25T08:33:47;96702.94;;;19.72;68.07
6094;BME280;19964;42.060;24.700;2023-04-25T08:36:14;96711.75;;;19.68;67.97
6094;BME280;19964;42.060;24.700;2023-04-25T08:38:41;96712.50;;;19.68;67.07
6094;BME280;19964;42.060;24.700;2023-04-25T08:41:08;96712.91;;;18.73;70.00
6094;BME280;19964;42.060;24.700;2023-04-25T08:43:37;96690.28;;;18.99;72.25
6094;BME280;19964;42.060;24.700;2023-04-25T08:46:05;96659.72;;;18.45;72.04
6094;BME280;19964;42.060;24.700;2023-04-25T08:48:33;96703.06;;;18.79;74.14
6094;BME280;19964;42.060;24.700;2023-04-25T08:51:02;96704.56;;;18.71;77.30
6094;BME280;19964;42.060;24.700;2023-04-25T08:53:31;96704.09;;;18.55;84.92
6094;BME280;19964;42.060;24.700;2023-04-25T08:56:00;96712.41;;;18.71;84.55
6094;BME280;19964;42.060;24.700;2023-04-25T08:58:28;96713.22;;;18.72;84.54
6094;BME280;19964;42.060;24.700;2023-04-25T09:00:55;96710.59;;;18.72;87.09
6094;BME280;19964;42.060;24.700;2023-04-25T09:03:21;96706.66;;;18.83;83.59
6094;BME280;19964;42.060;24.700;2023-04-25T09:05:51;96717.06;;;19.10;85.55
6094;BME280;19964;42.060;24.700;2023-04-25T09:08:18;96709.38;;;19.58;83.05
6094;BME280;19964;42.060;24.700;2023-04-25T09:10:44;96708.72;;;19.83;78.25
6094;BME280;19964;42.060;24.700;2023-04-25T09:13:13;96728.03;;;20.17;78.60
6094;BME280;19964;42.060;24.700;2023-04-25T09:15:50;96728.31;;;19.99;73.71
6094;BME280;19964;42.060;24.700;2023-04-25T09:21:40;96715.22;;;19.10;74.03
6094;BME280;19964;42.060;24.700;2023-04-25T09:24:07;96698.25;;;18.94;79.10
6094;BME280;19964;42.060;24.700;2023-04-25T09:26:34;96715.03;;;18.71;77.69
6094;BME280;19964;42.060;24.700;2023-04-25T09:29:05;96716.75;;;18.89;77.83
6094;BME280;19964;42.060;24.700;2023-04-25T09:31:33;96712.53;;;18.66;79.92
6094;BME280;19964;42.060;24.700;2023-04-25T09:34:00;96700.88;;;18.72;78.46
6094;BME280;19964;42.060;24.700;2023-04-25T09:36:27;96706.03;;;18.99;75.68
6094;BME280;19964;42.060;24.700;2023-04-25T09:38:55;96699.78;;;19.09;75.84
6094;BME280;19964;42.060;24.700;2023-04-25T09:41:23;96605.53;;;18.27;76.90
6094;BME280;19964;42.060;24.700;2023-04-25T09:43:50;96703.06;;;18.79;75.69
6094;BME280;19964;42.060;24.700;2023-04-25T09:46:17;96693.00;;;18.72;75.83
6094;BME280;19964;42.060;24.700;2023-04-25T09:48:48;96699.69;;;18.78;75.24
6094;BME280;19964;42.060;24.700;2023-04-25T09:51:15;96661.03;;;18.92;77.75
6094;BME280;19964;42.060;24.700;2023-04-25T09:53:44;96672.22;;;18.98;76.59
6094;BME280;19964;42.060;24.700;2023-04-25T09:56:13;96672.31;;;19.15;76.37
6094;BME280;19964;42.060;24.700;2023-04-25T09:58:40;96674.47;;;19.13;74.16
6094;BME280;19964;42.060;24.700;2023-04-25T10:01:08;96675.72;;;19.37;74.15
6094;BME280;19964;42.060;24.700;2023-04-25T10:03:37;96655.78;;;19.36;74.67
6094;BME280;19964;42.060;24.700;2023-04-25T10:06:07;96598.31;;;19.13;76.02
6094;BME280;19964;42.060;24.700;2023-04-25T10:08:35;96667.88;;;19.77;73.47
6094;BME280;19964;42.060;24.700;2023-04-25T10:11:04;96627.16;;;20.05;71.47
6094;BME280;19964;42.060;24.700;2023-04-25T10:13:33;96657.72;;;20.40;69.69
6094;BME280;19964;42.060;24.700;2023-04-25T10:16:01;96636.03;;;20.34;69.28
6094;BME280;19964;42.060;24.700;2023-04-25T10:18:29;96628.16;;;20.94;69.74
6094;BME280;19964;42.060;24.700;2023-04-25T10:20:58;96636.19;;;21.78;66.45
6094;BME280;19964;42.060;24.700;2023-04-25T10:23:26;96635.59;;;21.64;62.14
6094;BME280;19964;42.060;24.700;2023-04-25T10:25:54;96619.44;;;21.74;61.99
6094;BME280;19964;42.060;24.700;2023-04-25T10:28:20;96610.03;;;20.76;62.06
6094;BME280;19964;42.060;24.700;2023-04-25T10:30:59;96615.16;;;20.64;59.40
6094;BME280;19964;42.060;24.700;2023-04-25T10:33:36;96604.44;;;21.20;60.68
6094;BME280;19964;42.060;24.700;2023-04-25T10:36:10;96597.56;;;21.36;58.81
6094;BME280;19964;42.060;24.700;2023-04-25T10:38:37;96579.16;;;21.19;59.67
6094;BME280;19964;42.060;24.700;2023-04-25T10:41:05;96578.59;;;20.79;61.93
6094;BME280;19964;42.060;24.700;2023-04-25T10:43:35;96583.84;;;20.88;62.23
6094;BME280;19964;42.060;24.700;2023-04-25T10:46:12;96560.97;;;21.35;61.51
6094;BME280;19964;42.060;24.700;2023-04-25T10:48:45;96577.84;;;21.42;60.09
6094;BME280;19964;42.060;24.700;2023-04-25T10:51:17;96570.78;;;21.25;60.12
6094;BME280;19964;42.060;24.700;2023-04-25T10:53:44;96566.59;;;21.62;58.24
6094;BME280;19964;42.060;24.700;2023-04-25T10:56:11;96557.81;;;21.87;60.57
6094;BME280;19964;42.060;24.700;2023-04-25T10:58:42;96567.09;;;21.09;56.00
6094;BME280;19964;42.060;24.700;2023-04-25T11:01:12;96558.44;;;20.92;57.67
6094;BME280;19964;42.060;24.700;2023-04-25T11:03:40;96565.13;;;21.06;58.15
6094;BME280;19964;42.060;24.700;2023-04-25T11:06:17;96567.84;;;21.27;55.27
6094;BME280;19964;42.060;24.700;2023-04-25T11:08:48;96549.63;;;20.88;56.31
6094;BME280;19964;42.060;24.700;2023-04-25T11:11:19;96555.47;;;21.10;57.57
6094;BME280;19964;42.060;24.700;2023-04-25T11:13:48;96535.59;;;20.32;57.13
6094;BME280;19964;42.060;24.700;2023-04-25T11:16:16;96555.81;;;19.98;58.99
6094;BME280;19964;42.060;24.700;2023-04-25T11:18:44;96552.78;;;20.21;57.44
6094;BME280;19964;42.060;24.700;2023-04-25T11:21:11;96544.66;;;19.92;57.26
6094;BME280;19964;42.060;24.700;2023-04-25T11:23:38;96541.75;;;19.85;60.38
6094;BME280;19964;42.060;24.700;2023-04-25T11:26:06;96528.03;;;19.49;58.12
6094;BME280;19964;42.060;24.700;2023-04-25T11:28:32;96533.97;;;19.80;58.80
6094;BME280;19964;42.060;24.700;2023-04-25T11:30:59;96540.41;;;20.39;58.82
6094;BME280;19964;42.060;24.700;2023-04-25T11:33:27;96541.59;;;20.76;56.30
6094;BME280;19964;42.060;24.700;2023-04-25T11:35:54;96543.19;;;20.42;55.88
6094;BME280;19964;42.060;24.700;2023-04-25T11:38:22;96531.09;;;20.67;56.29
6094;BME280;19964;42.060;24.700;2023-04-25T11:40:50;96529.28;;;20.42;57.47
6094;BME280;19964;42.060;24.700;2023-04-25T11:43:18;96510.81;;;20.59;60.59
6094;BME280;19964;42.060;24.700;2023-04-25T11:45:47;96418.78;;;19.91;61.91
6094;BME280;19964;42.060;24.700;2023-04-25T11:48:14;96511.63;;;20.34;59.63
6094;BME280;19964;42.060;24.700;2023-04-25T11:50:42;96503.91;;;20.20;62.49
6094;BME280;19964;42.060;24.700;2023-04-25T11:53:09;96501.38;;;20.15;61.37
6094;BME280;19964;42.060;24.700;2023-04-25T11:55:37;96504.03;;;20.50;59.08
6094;BME280;19964;42.060;24.700;2023-04-25T11:58:04;96498.44;;;19.83;60.35
6094;BME280;19964;42.060;24.700;2023-04-25T12:00:31;96487.00;;;19.87;59.50
6094;BME280;19964;42.060;24.700;2023-04-25T12:02:58;96484.47;;;19.57;59.05
6094;BME280;19964;42.060;24.700;2023-04-25T12:05:28;96480.66;;;20.14;59.23
6094;BME280;19964;42.060;24.700;2023-04-25T12:07:56;96475.06;;;19.90;58.29
6094;BME280;19964;42.060;24.700;2023-04-25T12:10:24;96398.53;;;19.83;58.93
6094;BME280;19964;42.060;24.700;2023-04-25T12:12:51;96458.84;;;20.94;58.76
6094;BME280;19964;42.060;24.700;2023-04-25T12:15:22;96461.38;;;21.19;54.58
6094;BME280;19964;42.060;24.700;2023-04-25T12:17:51;96453.72;;;21.56;54.48
6094;BME280;19964;42.060;24.700;2023-04-25T12:20:19;96449.38;;;21.01;56.01
6094;BME280;19964;42.060;24.700;2023-04-25T12:22:49;96455.56;;;20.51;57.92
6094;BME280;19964;42.060;24.700;2023-04-25T12:25:35;96462.75;;;20.79;58.14
6094;BME280;19964;42.060;24.700;2023-04-25T12:28:14;96460.84;;;20.25;57.37
6094;BME280;19964;42.060;24.700;2023-04-25T12:30:57;96446.47;;;20.14;57.56
6094;BME280;19964;42.060;24.700;2023-04-25T12:33:24;96463.63;;;20.46;57.10
6094;BME280;19964;42.060;24.700;2023-04-25T12:35:52;96464.38;;;20.46;58.47
6094;BME280;19964;42.060;24.700;2023-04-25T12:38:23;96463.53;;;20.80;58.68
6094;BME280;19964;42.060;24.700;2023-04-25T12:40:52;96457.03;;;21.23;56.27
6094;BME280;19964;42.060;24.700;2023-04-25T12:43:19;96461.50;;;21.32;55.33
6094;BME280;19964;42.060;24.700;2023-04-25T12:45:47;96454.69;;;20.84;56.14
6094;BME280;19964;42.060;24.700;2023-04-25T12:48:14;96454.44;;;21.15;56.64
6094;BME280;19964;42.060;24.700;2023-04-25T12:50:41;96453.50;;;21.11;54.79
6094;BME280;19964;42.060;24.700;2023-04-25T12:53:07;96464.25;;;21.06;53.81
6094;BME280;19964;42.060;24.700;2023-04-25T12:55:34;96459.88;;;21.10;53.06
6094;BME280;19964;42.060;24.700;2023-04-25T12:58:02;96458.00;;;20.64;55.82
6094;BME280;19964;42.060;24.700;2023-04-25T13:00:29;96459.31;;;20.24;57.91